sensor_id;sensor_type;location;lat;lon;timestamp;pressure;altitude;pressure_sealevel;temperature;humidity
30073;BME280;16897;52.422;13.678;2023-03-22T00:00:25;100844.56;;;14.11;53.68
30073;BME280;16897;52.422;13.678;2023-03-22T00:04:30;100817.75;;;14.06;53.73
30073;BME280;16897;52.422;13.678;2023-03-22T00:08:33;100834.06;;;14.11;53.64
30073;BME280;16897;52.422;13.678;2023-03-22T00:12:34;100817.69;;;14.08;53.84
30073;BME280;16897;52.422;13.678;2023-03-22T00:16:36;100780.06;;;13.82;53.89
30073;BME280;16897;52.422;13.678;2023-03-22T00:20:37;100837.41;;;14.13;53.74
30073;BME280;16897;52.422;13.678;2023-03-22T00:24:40;100830.91;;;14.06;53.80
30073;BME280;16897;52.422;13.678;2023-03-22T00:28:50;100831.63;;;14.08;53.80
30073;BME280;16897;52.422;13.678;2023-03-22T00:32:51;100809.91;;;13.93;53.72
30073;BME280;16897;52.422;13.678;2023-03-22T00:36:53;100830.50;;;14.00;53.83
30073;BME280;16897;52.422;13.678;2023-03-22T00:41:06;100821.25;;;13.94;53.76
30073;BME280;16897;52.422;13.678;2023-03-22T00:45:10;100823.03;;;13.93;53.85
30073;BME280;16897;52.422;13.678;2023-03-22T00:49:11;100817.34;;;13.87;53.85
30073;BME280;16897;52.422;13.678;2023-03-22T00:53:13;100806.53;;;13.79;53.88
30073;BME280;16897;52.422;13.678;2023-03-22T00:57:15;100811.34;;;13.85;53.86
30073;BME280;16897;52.422;13.678;2023-03-22T01:01:18;100778.66;;;13.63;54.00
30073;BME280;16897;52.422;13.678;2023-03-22T01:05:20;100797.91;;;13.77;53.82
30073;BME280;16897;52.422;13.678;2023-03-22T01:09:22;100767.63;;;13.58;53.86
30073;BME280;16897;52.422;13.678;2023-03-22T01:13:24;100798.31;;;13.70;53.90
30073;BME280;16897;52.422;13.678;2023-03-22T01:17:26;100776.75;;;13.53;53.96
30073;BME280;16897;52.422;13.678;2023-03-22T01:21:28;100817.22;;;13.76;53.96
30073;BME280;16897;52.422;13.678;2023-03-22T01:25:29;100795.91;;;13.67;53.93
30073;BME280;16897;52.422;13.678;2023-03-22T01:29:32;100775.19;;;13.50;53.90
30073;BME280;16897;52.422;13.678;2023-03-22T01:33:33;100756.94;;;13.48;54.02
30073;BME280;16897;52.422;13.678;2023-03-22T01:37:35;100799.81;;;13.75;54.04
30073;BME280;16897;52.422;13.678;2023-03-22T01:41:37;100779.22;;;13.68;54.06
30073;BME280;16897;52.422;13.678;2023-03-22T01:45:48;100741.41;;;13.45;54.07
30073;BME280;16897;52.422;13.678;2023-03-22T01:49:50;100759.97;;;13.55;54.09
30073;BME280;16897;52.422;13.678;2023-03-22T01:53:55;100777.31;;;13.70;54.07
30073;BME280;16897;52.422;13.678;2023-03-22T01:58:00;100720.19;;;13.36;54.04
30073;BME280;16897;52.422;13.678;2023-03-22T02:02:15;100767.25;;;13.64;54.06
30073;BME280;16897;52.422;13.678;2023-03-22T02:06:25;100768.84;;;13.67;54.21
30073;BME280;16897;52.422;13.678;2023-03-22T02:10:34;100747.41;;;13.60;54.11
30073;BME280;16897;52.422;13.678;2023-03-22T02:28:55;100728.72;;;13.52;54.27
30073;BME280;16897;52.422;13.678;2023-03-22T02:42:04;100759.28;;;13.53;54.19
30073;BME280;16897;52.422;13.678;2023-03-22T02:46:11;100755.34;;;13.46;54.27
30073;BME280;16897;52.422;13.678;2023-03-22T02:50:37;100749.78;;;13.38;54.26
30073;BME280;16897;52.422;13.678;2023-03-22T02:55:05;100753.69;;;13.45;54.18
30073;BME280;16897;52.422;13.678;2023-03-22T02:59:11;100717.50;;;13.23;54.35
30073;BME280;16897;52.422;13.678;2023-03-22T03:03:15;100739.59;;;13.33;54.27
30073;BME280;16897;52.422;13.678;2023-03-22T03:07:21;100737.81;;;13.34;54.24
30073;BME280;16897;52.422;13.678;2023-03-22T03:11:25;100701.56;;;13.13;54.30
30073;BME280;16897;52.422;13.678;2023-03-22T03:15:27;100727.84;;;13.26;54.29
30073;BME280;16897;52.422;13.678;2023-03-22T03:20:02;100730.47;;;13.26;54.24
30073;BME280;16897;52.422;13.678;2023-03-22T03:24:28;100720.66;;;13.15;54.31
30073;BME280;16897;52.422;13.678;2023-03-22T03:28:57;100728.63;;;13.14;54.36
30073;BME280;16897;52.422;13.678;2023-03-22T03:33:07;100728.69;;;13.12;54.22
30073;BME280;16897;52.422;13.678;2023-03-22T03:37:16;100683.00;;;12.76;54.30
30073;BME280;16897;52.422;13.678;2023-03-22T03:41:21;100697.81;;;12.77;54.23
30073;BME280;16897;52.422;13.678;2023-03-22T03:45:24;100735.88;;;12.96;54.38
30073;BME280;16897;52.422;13.678;2023-03-22T03:49:26;100723.41;;;12.87;54.28
30073;BME280;16897;52.422;13.678;2023-03-22T03:53:29;100738.84;;;12.91;54.29
30073;BME280;16897;52.422;13.678;2023-03-22T03:57:31;100750.91;;;12.94;54.30
30073;BME280;16897;52.422;13.678;2023-03-22T04:01:32;100737.34;;;12.87;54.40
30073;BME280;16897;52.422;13.678;2023-03-22T04:05:46;100740.78;;;12.88;54.28
30073;BME280;16897;52.422;13.678;2023-03-22T04:09:48;100731.53;;;12.82;54.23
30073;BME280;16897;52.422;13.678;2023-03-22T04:13:55;100726.34;;;12.68;54.16
30073;BME280;16897;52.422;13.678;2023-03-22T04:17:58;100730.75;;;12.67;54.19
30073;BME280;16897;52.422;13.678;2023-03-22T04:22:03;100746.56;;;12.66;54.24
30073;BME280;16897;52.422;13.678;2023-03-22T04:26:07;100739.31;;;12.56;54.22
30073;BME280;16897;52.422;13.678;2023-03-22T04:30:20;100730.34;;;12.46;54.12
30073;BME280;16897;52.422;13.678;2023-03-22T04:34:34;100724.09;;;12.34;54.21
30073;BME280;16897;52.422;13.678;2023-03-22T04:38:38;100703.94;;;12.08;54.27
30073;BME280;16897;52.422;13.678;2023-03-22T04:42:42;100715.88;;;12.12;54.30
30073;BME280;16897;52.422;13.678;2023-03-22T04:46:59;100727.75;;;12.17;54.28
30073;BME280;16897;52.422;13.678;2023-03-22T04:51:03;100723.09;;;12.08;54.21
30073;BME280;16897;52.422;13.678;2023-03-22T04:55:11;100730.47;;;12.16;54.50
30073;BME280;16897;52.422;13.678;2023-03-22T04:59:13;100729.16;;;12.09;54.45
30073;BME280;16897;52.422;13.678;2023-03-22T05:03:14;100683.16;;;11.76;54.34
30073;BME280;16897;52.422;13.678;2023-03-22T05:07:19;100721.69;;;12.03;54.35
30073;BME280;16897;52.422;13.678;2023-03-22T05:11:26;100714.03;;;12.00;54.40
30073;BME280;16897;52.422;13.678;2023-03-22T05:16:00;100715.72;;;12.01;54.35
30073;BME280;16897;52.422;13.678;2023-03-22T05:20:12;100714.94;;;11.99;54.51
30073;BME280;16897;52.422;13.678;2023-03-22T05:24:17;100712.63;;;11.94;54.47
30073;BME280;16897;52.422;13.678;2023-03-22T05:28:22;100707.41;;;11.94;54.46
30073;BME280;16897;52.422;13.678;2023-03-22T05:32:33;100641.78;;;11.54;54.54
30073;BME280;16897;52.422;13.678;2023-03-22T05:36:38;100707.97;;;11.99;54.60
30073;BME280;16897;52.422;13.678;2023-03-22T05:41:10;100707.28;;;11.95;54.70
30073;BME280;16897;52.422;13.678;2023-03-22T05:45:12;100687.78;;;11.87;54.48
30073;BME280;16897;52.422;13.678;2023-03-22T05:49:15;100712.91;;;12.04;54.66
30073;BME280;16897;52.422;13.678;2023-03-22T05:53:17;100704.13;;;12.05;54.77
30073;BME280;16897;52.422;13.678;2023-03-22T05:57:32;100706.75;;;12.05;54.78
30073;BME280;16897;52.422;13.678;2023-03-22T06:01:35;100687.94;;;11.98;54.55
30073;BME280;16897;52.422;13.678;2023-03-22T06:05:47;100690.47;;;12.00;54.63
30073;BME280;16897;52.422;13.678;2023-03-22T06:09:53;100694.38;;;12.07;54.67
30073;BME280;16897;52.422;13.678;2023-03-22T06:14:00;100690.09;;;12.06;54.82
30073;BME280;16897;52.422;13.678;2023-03-22T06:18:14;100671.41;;;11.98;54.88
30073;BME280;16897;52.422;13.678;2023-03-22T06:22:20;100651.44;;;11.97;54.81
30073;BME280;16897;52.422;13.678;2023-03-22T06:26:23;100641.03;;;11.81;54.77
30073;BME280;16897;52.422;13.678;2023-03-22T06:30:25;100691.41;;;12.13;54.86
30073;BME280;16897;52.422;13.678;2023-03-22T06:34:45;100628.22;;;11.76;54.96
30073;BME280;16897;52.422;13.678;2023-03-22T06:38:48;100680.25;;;12.09;54.78
30073;BME280;16897;52.422;13.678;2023-03-22T06:42:50;100602.53;;;11.68;54.93
30073;BME280;16897;52.422;13.678;2023-03-22T06:46:53;100611.78;;;11.74;54.79
30073;BME280;16897;52.422;13.678;2023-03-22T06:51:19;100630.44;;;11.82;54.86
30073;BME280;16897;52.422;13.678;2023-03-22T06:55:21;100618.50;;;11.78;55.00
30073;BME280;16897;52.422;13.678;2023-03-22T06:59:23;100630.44;;;11.82;55.08
30073;BME280;16897;52.422;13.678;2023-03-22T07:03:25;100656.47;;;12.00;54.95
30073;BME280;16897;52.422;13.678;2023-03-22T07:07:39;100665.59;;;12.07;55.10
30073;BME280;16897;52.422;13.678;2023-03-22T07:11:44;100658.88;;;12.03;55.11
30073;BME280;16897;52.422;13.678;2023-03-22T07:15:45;100654.47;;;12.03;55.07
30073;BME280;16897;52.422;13.678;2023-03-22T07:20:00;100630.66;;;11.93;55.04
30073;BME280;16897;52.422;13.678;2023-03-22T07:24:03;100682.56;;;12.28;55.12
30073;BME280;16897;52.422;13.678;2023-03-22T07:28:07;100691.53;;;12.38;55.19
30073;BME280;16897;52.422;13.678;2023-03-22T07:32:11;100695.53;;;12.44;55.10
30073;BME280;16897;52.422;13.678;2023-03-22T07:36:33;100652.69;;;12.18;55.26
30073;BME280;16897;52.422;13.678;2023-03-22T07:40:35;100636.88;;;12.20;55.09
30073;BME280;16897;52.422;13.678;2023-03-22T07:44:41;100621.44;;;12.15;55.33
30073;BME280;16897;52.422;13.678;2023-03-22T07:49:05;100638.94;;;12.29;55.11
30073;BME280;16897;52.422;13.678;2023-03-22T07:53:25;100669.50;;;12.55;55.28
30073;BME280;16897;52.422;13.678;2023-03-22T07:57:27;100642.41;;;12.42;55.41
30073;BME280;16897;52.422;13.678;2023-03-22T08:01:33;100683.59;;;12.67;55.32
30073;BME280;16897;52.422;13.678;2023-03-22T08:05:55;100700.75;;;12.86;55.30
30073;BME280;16897;52.422;13.678;2023-03-22T08:09:59;100699.31;;;12.94;55.40
30073;BME280;16897;52.422;13.678;2023-03-22T08:14:01;100700.69;;;13.00;55.45
30073;BME280;16897;52.422;13.678;2023-03-22T08:18:05;100682.34;;;13.00;55.50
30073;BME280;16897;52.422;13.678;2023-03-22T08:22:13;100663.03;;;13.01;55.37
30073;BME280;16897;52.422;13.678;2023-03-22T08:26:51;100662.75;;;13.18;55.66
30073;BME280;16897;52.422;13.678;2023-03-22T08:31:14;100680.53;;;13.40;55.76
30073;BME280;16897;52.422;13.678;2023-03-22T08:35:17;100687.16;;;13.59;55.71
30073;BME280;16897;52.422;13.678;2023-03-22T08:39:19;100668.28;;;13.66;55.79
30073;BME280;16897;52.422;13.678;2023-03-22T08:43:50;100669.38;;;13.88;55.79
30073;BME280;16897;52.422;13.678;2023-03-22T08:47:53;100661.50;;;14.01;55.78
30073;BME280;16897;52.422;13.678;2023-03-22T08:51:58;100660.28;;;14.17;55.75
30073;BME280;16897;52.422;13.678;2023-03-22T08:56:25;100639.41;;;14.16;55.67
30073;BME280;16897;52.422;13.678;2023-03-22T09:00:43;100647.53;;;14.37;55.76
30073;BME280;16897;52.422;13.678;2023-03-22T09:04:54;100639.19;;;14.43;55.66
30073;BME280;16897;52.422;13.678;2023-03-22T09:08:55;100627.84;;;14.43;55.81
30073;BME280;16897;52.422;13.678;2023-03-22T09:12:58;100647.44;;;14.63;55.67
30073;BME280;16897;52.422;13.678;2023-03-22T09:17:00;100616.72;;;14.63;55.80
30073;BME280;16897;52.422;13.678;2023-03-22T09:21:03;100624.09;;;14.82;55.82
30073;BME280;16897;52.422;13.678;2023-03-22T09:25:16;100559.28;;;14.58;55.74
30073;BME280;16897;52.422;13.678;2023-03-22T09:29:21;100616.72;;;14.98;55.59
30073;BME280;16897;52.422;13.678;2023-03-22T09:33:22;100596.19;;;15.03;55.67
30073;BME280;16897;52.422;13.678;2023-03-22T09:37:27;100605.06;;;15.25;55.74
30073;BME280;16897;52.422;13.678;2023-03-22T09:45:41;100581.88;;;15.53;55.82
30073;BME280;16897;52.422;13.678;2023-03-22T09:49:46;100581.91;;;15.75;56.20
30073;BME280;16897;52.422;13.678;2023-03-22T09:53:49;100580.06;;;15.87;55.78
30073;BME280;16897;52.422;13.678;2023-03-22T09:57:57;100574.94;;;15.97;55.92
30073;BME280;16897;52.422;13.678;2023-03-22T10:02:07;100581.47;;;16.13;55.74
30073;BME280;16897;52.422;13.678;2023-03-22T10:06:20;100596.34;;;16.35;55.75
30073;BME280;16897;52.422;13.678;2023-03-22T10:10:23;100600.25;;;16.52;55.69
30073;BME280;16897;52.422;13.678;2023-03-22T10:23:52;100584.81;;;16.69;55.54
30073;BME280;16897;52.422;13.678;2023-03-22T10:27:55;100571.97;;;16.75;55.63
30073;BME280;16897;52.422;13.678;2023-03-22T10:32:08;100515.78;;;16.54;55.83
30073;BME280;16897;52.422;13.678;2023-03-22T10:36:13;100577.06;;;17.09;55.77
30073;BME280;16897;52.422;13.678;2023-03-22T10:40:29;100567.94;;;17.13;55.48
30073;BME280;16897;52.422;13.678;2023-03-22T10:44:34;100569.38;;;17.27;55.62
30073;BME280;16897;52.422;13.678;2023-03-22T10:48:43;100550.78;;;17.29;55.51
30073;BME280;16897;52.422;13.678;2023-03-22T10:56:49;100543.22;;;17.45;55.43
30073;BME280;16897;52.422;13.678;2023-03-22T11:05:27;100554.97;;;17.72;55.45
30073;BME280;16897;52.422;13.678;2023-03-22T11:09:28;100533.41;;;17.76;55.46
30073;BME280;16897;52.422;13.678;2023-03-22T11:13:30;100526.13;;;17.80;55.22
30073;BME280;16897;52.422;13.678;2023-03-22T11:17:33;100530.41;;;17.81;55.23
30073;BME280;16897;52.422;13.678;2023-03-22T11:21:37;100520.56;;;17.83;55.04
30073;BME280;16897;52.422;13.678;2023-03-22T11:25:44;100479.91;;;17.64;55.18
30073;BME280;16897;52.422;13.678;2023-03-22T11:29:51;100525.31;;;17.99;55.26
30073;BME280;16897;52.422;13.678;2023-03-22T11:33:58;100499.84;;;17.88;54.88
30073;BME280;16897;52.422;13.678;2023-03-22T11:38:01;100488.97;;;17.81;54.98
30073;BME280;16897;52.422;13.678;2023-03-22T11:42:04;100509.72;;;18.05;54.95
30073;BME280;16897;52.422;13.678;2023-03-22T11:46:07;100509.16;;;18.11;54.75
30073;BME280;16897;52.422;13.678;2023-03-22T11:50:29;100493.88;;;18.05;54.83
30073;BME280;16897;52.422;13.678;2023-03-22T11:54:33;100469.66;;;18.00;54.73
30073;BME280;16897;52.422;13.678;2023-03-22T12:02:42;100463.53;;;17.90;54.81
30073;BME280;16897;52.422;13.678;2023-03-22T12:06:46;100497.22;;;18.07;54.72
30073;BME280;16897;52.422;13.678;2023-03-22T12:10:52;100476.63;;;18.01;54.55
30073;BME280;16897;52.422;13.678;2023-03-22T12:23:36;100474.09;;;18.29;54.65
30073;BME280;16897;52.422;13.678;2023-03-22T12:27:40;100441.28;;;18.31;54.04
30073;BME280;16897;52.422;13.678;2023-03-22T12:31:58;100459.03;;;18.49;54.53
30073;BME280;16897;52.422;13.678;2023-03-22T12:36:03;100472.50;;;18.65;54.56
30073;BME280;16897;52.422;13.678;2023-03-22T12:40:31;100456.63;;;18.65;54.18
30073;BME280;16897;52.422;13.678;2023-03-22T12:44:39;100453.44;;;18.71;54.46
30073;BME280;16897;52.422;13.678;2023-03-22T12:48:49;100416.53;;;18.70;54.10
30073;BME280;16897;52.422;13.678;2023-03-22T12:52:52;100427.88;;;18.90;54.29
30073;BME280;16897;52.422;13.678;2023-03-22T12:56:57;100391.19;;;18.77;54.11
30073;BME280;16897;52.422;13.678;2023-03-22T13:05:32;100402.09;;;19.01;53.86
30073;BME280;16897;52.422;13.678;2023-03-22T13:09:48;100410.78;;;19.12;54.12
30073;BME280;16897;52.422;13.678;2023-03-22T13:13:50;100396.72;;;19.11;53.94
30073;BME280;16897;52.422;13.678;2023-03-22T13:17:52;100412.13;;;19.26;53.97
30073;BME280;16897;52.422;13.678;2023-03-22T13:26:19;100396.38;;;19.24;53.78
30073;BME280;16897;52.422;13.678;2023-03-22T13:30:31;100413.44;;;19.39;53.87
30073;BME280;16897;52.422;13.678;2023-03-22T13:34:44;100397.47;;;19.31;53.84
30073;BME280;16897;52.422;13.678;2023-03-22T13:38:52;100400.19;;;19.39;53.68
30073;BME280;16897;52.422;13.678;2023-03-22T13:47:35;100394.06;;;19.39;53.41
30073;BME280;16897;52.422;13.678;2023-03-22T13:51:37;100393.91;;;19.40;53.47
30073;BME280;16897;52.422;13.678;2023-03-22T14:00:00;100389.13;;;19.44;53.35
30073;BME280;16897;52.422;13.678;2023-03-22T14:04:15;100395.66;;;19.50;53.32
30073;BME280;16897;52.422;13.678;2023-03-22T14:08:24;100386.72;;;19.51;53.18
30073;BME280;16897;52.422;13.678;2023-03-22T14:12:31;100401.31;;;19.55;53.33
30073;BME280;16897;52.422;13.678;2023-03-22T14:16:48;100384.06;;;19.51;53.19
30073;BME280;16897;52.422;13.678;2023-03-22T14:20:53;100374.75;;;19.46;53.25
30073;BME280;16897;52.422;13.678;2023-03-22T14:24:56;100379.47;;;19.53;53.06
30073;BME280;16897;52.422;13.678;2023-03-22T14:29:09;100366.66;;;19.48;53.47
30073;BME280;16897;52.422;13.678;2023-03-22T14:33:20;100358.78;;;19.38;53.17
30073;BME280;16897;52.422;13.678;2023-03-22T14:37:22;100369.84;;;19.52;52.97
30073;BME280;16897;52.422;13.678;2023-03-22T14:41:24;100370.97;;;19.49;52.94
30073;BME280;16897;52.422;13.678;2023-03-22T14:45:27;100380.28;;;19.53;53.09
30073;BME280;16897;52.422;13.678;2023-03-22T14:49:29;100372.78;;;19.49;52.75
30073;BME280;16897;52.422;13.678;2023-03-22T14:53:35;100362.50;;;19.45;52.96
30073;BME280;16897;52.422;13.678;2023-03-22T14:57:46;100372.66;;;19.50;52.76
30073;BME280;16897;52.422;13.678;2023-03-22T15:01:55;100346.84;;;19.34;52.87
30073;BME280;16897;52.422;13.678;2023-03-22T15:05:58;100354.47;;;19.37;52.54
30073;BME280;16897;52.422;13.678;2023-03-22T15:10:21;100365.00;;;19.47;52.69
30073;BME280;16897;52.422;13.678;2023-03-22T15:14:24;100360.84;;;19.44;52.78
30073;BME280;16897;52.422;13.678;2023-03-22T15:18:29;100324.59;;;19.27;52.73
30073;BME280;16897;52.422;13.678;2023-03-22T15:22:32;100330.41;;;19.31;52.37
30073;BME280;16897;52.422;13.678;2023-03-22T15:26:33;100365.53;;;19.51;52.46
30073;BME280;16897;52.422;13.678;2023-03-22T15:30:35;100346.31;;;19.49;52.28
30073;BME280;16897;52.422;13.678;2023-03-22T15:34:38;100347.75;;;19.43;52.69
30073;BME280;16897;52.422;13.678;2023-03-22T15:38:40;100304.03;;;19.21;52.33
30073;BME280;16897;52.422;13.678;2023-03-22T15:42:42;100336.25;;;19.34;52.33
30073;BME280;16897;52.422;13.678;2023-03-22T15:51:17;100293.09;;;19.06;52.30
30073;BME280;16897;52.422;13.678;2023-03-22T15:55:26;100292.16;;;19.07;52.29
30073;BME280;16897;52.422;13.678;2023-03-22T15:59:30;100352.81;;;19.36;51.96
30073;BME280;16897;52.422;13.678;2023-03-22T16:03:40;100299.84;;;19.00;52.20
30073;BME280;16897;52.422;13.678;2023-03-22T16:07:44;100272.06;;;18.87;52.18
30073;BME280;16897;52.422;13.678;2023-03-22T16:11:47;100314.28;;;19.06;52.08
30073;BME280;16897;52.422;13.678;2023-03-22T16:15:48;100291.16;;;18.90;52.06
30073;BME280;16897;52.422;13.678;2023-03-22T16:19:50;100318.53;;;18.99;52.02
30073;BME280;16897;52.422;13.678;2023-03-22T16:23:52;100332.16;;;19.04;51.89
30073;BME280;16897;52.422;13.678;2023-03-22T16:27:54;100296.78;;;18.77;51.86
30073;BME280;16897;52.422;13.678;2023-03-22T16:31:55;100343.56;;;19.05;51.99
30073;BME280;16897;52.422;13.678;2023-03-22T16:35:57;100335.84;;;18.93;52.02
30073;BME280;16897;52.422;13.678;2023-03-22T16:39:59;100311.25;;;18.73;51.72
30073;BME280;16897;52.422;13.678;2023-03-22T16:44:00;100337.78;;;18.91;51.68
30073;BME280;16897;52.422;13.678;2023-03-22T16:48:02;100329.38;;;18.78;51.98
30073;BME280;16897;52.422;13.678;2023-03-22T16:52:04;100357.41;;;18.98;51.86
30073;BME280;16897;52.422;13.678;2023-03-22T16:56:11;100331.19;;;18.77;51.92
30073;BME280;16897;52.422;13.678;2023-03-22T17:00:15;100374.94;;;18.99;51.84
30073;BME280;16897;52.422;13.678;2023-03-22T17:04:18;100325.59;;;18.71;51.86
30073;BME280;16897;52.422;13.678;2023-03-22T17:08:20;100376.06;;;18.97;51.45
30073;BME280;16897;52.422;13.678;2023-03-22T17:12:25;100372.47;;;18.88;51.69
30073;BME280;16897;52.422;13.678;2023-03-22T17:16:27;100393.19;;;18.93;51.71
30073;BME280;16897;52.422;13.678;2023-03-22T17:20:29;100386.44;;;18.81;51.74
30073;BME280;16897;52.422;13.678;2023-03-22T17:24:31;100398.03;;;18.79;51.56
30073;BME280;16897;52.422;13.678;2023-03-22T17:28:32;100401.78;;;18.77;51.48
30073;BME280;16897;52.422;13.678;2023-03-22T17:32:34;100337.34;;;18.31;51.52
30073;BME280;16897;52.422;13.678;2023-03-22T17:36:36;100384.16;;;18.58;51.65
30073;BME280;16897;52.422;13.678;2023-03-22T17:40:37;100407.78;;;18.60;51.31
30073;BME280;16897;52.422;13.678;2023-03-22T17:44:39;100381.13;;;18.43;51.34
30073;BME280;16897;52.422;13.678;2023-03-22T17:48:42;100405.72;;;18.53;51.21
30073;BME280;16897;52.422;13.678;2023-03-22T17:52:45;100413.66;;;18.53;51.52
30073;BME280;16897;52.422;13.678;2023-03-22T17:56:46;100399.50;;;18.45;51.61
30073;BME280;16897;52.422;13.678;2023-03-22T18:00:48;100357.00;;;18.09;51.21
30073;BME280;16897;52.422;13.678;2023-03-22T18:04:50;100409.78;;;18.38;51.47
30073;BME280;16897;52.422;13.678;2023-03-22T18:08:52;100426.59;;;18.47;51.21
30073;BME280;16897;52.422;13.678;2023-03-22T18:12:54;100419.25;;;18.41;51.40
30073;BME280;16897;52.422;13.678;2023-03-22T18:16:57;100404.38;;;18.30;51.28
30073;BME280;16897;52.422;13.678;2023-03-22T18:21:03;100415.25;;;18.37;51.16
30073;BME280;16897;52.422;13.678;2023-03-22T18:25:05;100411.75;;;18.36;51.29
30073;BME280;16897;52.422;13.678;2023-03-22T18:29:09;100353.56;;;17.99;50.94
30073;BME280;16897;52.422;13.678;2023-03-22T18:33:10;100431.78;;;18.39;51.34
30073;BME280;16897;52.422;13.678;2023-03-22T18:37:12;100365.53;;;17.93;51.11
30073;BME280;16897;52.422;13.678;2023-03-22T18:41:15;100429.00;;;18.30;51.21
30073;BME280;16897;52.422;13.678;2023-03-22T18:45:17;100376.22;;;17.91;51.33
30073;BME280;16897;52.422;13.678;2023-03-22T18:49:20;100433.22;;;18.23;51.13
30073;BME280;16897;52.422;13.678;2023-03-22T18:53:21;100429.34;;;18.18;51.18
30073;BME280;16897;52.422;13.678;2023-03-22T18:57:23;100397.47;;;17.90;50.97
30073;BME280;16897;52.422;13.678;2023-03-22T19:01:25;100423.34;;;18.06;51.03
30073;BME280;16897;52.422;13.678;2023-03-22T19:05:26;100397.78;;;17.87;50.96
30073;BME280;16897;52.422;13.678;2023-03-22T19:09:28;100425.16;;;17.96;50.92
30073;BME280;16897;52.422;13.678;2023-03-22T19:13:30;100435.47;;;17.99;51.23
30073;BME280;16897;52.422;13.678;2023-03-22T19:17:31;100429.63;;;17.85;51.16
30073;BME280;16897;52.422;13.678;2023-03-22T19:21:34;100413.59;;;17.77;51.10
30073;BME280;16897;52.422;13.678;2023-03-22T19:25:35;100424.63;;;17.82;51.22
30073;BME280;16897;52.422;13.678;2023-03-22T19:29:36;100364.81;;;17.42;50.98
30073;BME280;16897;52.422;13.678;2023-03-22T19:33:38;100432.28;;;17.85;50.90
30073;BME280;16897;52.422;13.678;2023-03-22T19:37:39;100388.44;;;17.63;50.89
30073;BME280;16897;52.422;13.678;2023-03-22T19:41:40;100393.72;;;17.73;51.05
30073;BME280;16897;52.422;13.678;2023-03-22T19:45:43;100398.16;;;17.73;50.96
30073;BME280;16897;52.422;13.678;2023-03-22T19:49:44;100408.31;;;17.77;51.01
30073;BME280;16897;52.422;13.678;2023-03-22T19:53:48;100397.19;;;17.74;51.14
30073;BME280;16897;52.422;13.678;2023-03-22T19:57:49;100404.44;;;17.72;51.12
30073;BME280;16897;52.422;13.678;2023-03-22T20:01:51;100405.09;;;17.74;51.02
30073;BME280;16897;52.422;13.678;2023-03-22T20:05:52;100401.09;;;17.69;51.08
30073;BME280;16897;52.422;13.678;2023-03-22T20:10:02;100357.28;;;17.38;50.76
30073;BME280;16897;52.422;13.678;2023-03-22T20:14:04;100395.94;;;17.58;50.82
30073;BME280;16897;52.422;13.678;2023-03-22T20:18:06;100405.25;;;17.62;51.13
30073;BME280;16897;52.422;13.678;2023-03-22T20:22:08;100406.94;;;17.63;50.97
30073;BME280;16897;52.422;13.678;2023-03-22T20:26:09;100345.06;;;17.27;51.01
30073;BME280;16897;52.422;13.678;2023-03-22T20:30:15;100392.59;;;17.56;51.07
30073;BME280;16897;52.422;13.678;2023-03-22T20:34:17;100394.97;;;17.59;50.99
30073;BME280;16897;52.422;13.678;2023-03-22T20:38:18;100378.44;;;17.47;51.14
30073;BME280;16897;52.422;13.678;2023-03-22T20:42:20;100377.56;;;17.47;50.87
30073;BME280;16897;52.422;13.678;2023-03-22T20:46:22;100328.09;;;17.10;50.92
30073;BME280;16897;52.422;13.678;2023-03-22T20:50:24;100372.56;;;17.44;50.90
30073;BME280;16897;52.422;13.678;2023-03-22T20:54:25;100368.97;;;17.45;50.80
30073;BME280;16897;52.422;13.678;2023-03-22T20:58:27;100370.63;;;17.46;51.05
30073;BME280;16897;52.422;13.678;2023-03-22T21:02:28;100368.97;;;17.45;50.96
30073;BME280;16897;52.422;13.678;2023-03-22T21:06:32;100363.97;;;17.42;50.74
30073;BME280;16897;52.422;13.678;2023-03-22T21:10:34;100361.59;;;17.39;50.99
30073;BME280;16897;52.422;13.678;2023-03-22T21:14:36;100343.09;;;17.19;50.95
30073;BME280;16897;52.422;13.678;2023-03-22T21:18:38;100358.13;;;17.29;51.03
30073;BME280;16897;52.422;13.678;2023-03-22T21:22:39;100344.34;;;17.15;51.06
30073;BME280;16897;52.422;13.678;2023-03-22T21:26:41;100353.81;;;17.18;50.91
30073;BME280;16897;52.422;13.678;2023-03-22T21:30:43;100372.84;;;17.21;50.74
30073;BME280;16897;52.422;13.678;2023-03-22T21:34:45;100347.53;;;17.09;51.01
30073;BME280;16897;52.422;13.678;2023-03-22T21:38:46;100368.94;;;17.16;50.94
30073;BME280;16897;52.422;13.678;2023-03-22T21:42:57;100309.56;;;16.81;50.97
30073;BME280;16897;52.422;13.678;2023-03-22T21:46:59;100345.97;;;16.97;50.80
30073;BME280;16897;52.422;13.678;2023-03-22T21:51:02;100359.34;;;17.05;50.87
30073;BME280;16897;52.422;13.678;2023-03-22T21:55:04;100342.38;;;16.98;50.92
30073;BME280;16897;52.422;13.678;2023-03-22T21:59:06;100327.19;;;16.80;50.94
30073;BME280;16897;52.422;13.678;2023-03-22T22:03:08;100328.84;;;16.81;50.75
30073;BME280;16897;52.422;13.678;2023-03-22T22:07:10;100354.16;;;16.94;50.73
30073;BME280;16897;52.422;13.678;2023-03-22T22:11:14;100348.59;;;16.87;50.93
30073;BME280;16897;52.422;13.678;2023-03-22T22:15:15;100347.03;;;16.85;50.72
30073;BME280;16897;52.422;13.678;2023-03-22T22:19:17;100332.59;;;16.79;50.79
30073;BME280;16897;52.422;13.678;2023-03-22T22:23:18;100318.28;;;16.72;50.74
30073;BME280;16897;52.422;13.678;2023-03-22T22:27:22;100330.13;;;16.77;50.81